Time;durP1;ratioP1;P1;durP2;ratioP2;P2;SDS_P1;SDS_P2;PMS_P1;PMS_P2;Temp;Humidity;BMP_temperature;BMP_pressure;BME280_temperature;BME280_humidity;BME280_pressure;Samples;Min_cycle;Max_cycle;Signal;HPM_P1;HPM_P2
2020/12/12 00:00:36;;;;;;;1999.90;999.90;;;;;;;0.33;91.63;96919.59;5024271;28;20049;-63
2020/12/12 00:03:02;;;;;;;1999.90;999.90;;;;;;;-0.14;92.57;96926.75;5024098;28;20369;-63
2020/12/12 00:05:28;;;;;;;1999.90;999.90;;;;;;;-0.76;95.73;96916.59;5023867;28;20103;-65
2020/12/12 00:07:54;;;;;;;1999.90;999.90;;;;;;;-0.73;96.17;96917.91;5024378;28;20053;-65
2020/12/12 00:10:23;;;;;;;1999.90;999.90;;;;;;;-1.23;99.51;96917.31;5023948;28;20058;-64
2020/12/12 00:12:53;;;;;;;1999.90;999.90;;;;;;;-1.69;100.00;96915.72;5024180;28;20445;-64
2020/12/12 00:15:19;;;;;;;1999.90;999.90;;;;;;;-1.24;100.00;96911.03;5023047;28;20047;-65
2020/12/12 00:17:45;;;;;;;1999.90;999.90;;;;;;;-0.77;100.00;96914.16;5023196;28;20057;-65
2020/12/12 00:20:12;;;;;;;1999.90;999.90;;;;;;;-1.63;100.00;96914.59;5023930;28;20053;-65
2020/12/12 00:22:38;;;;;;;1999.90;999.90;;;;;;;-1.51;100.00;96917.75;5030312;28;20053;-65
2020/12/12 00:25:10;;;;;;;1999.90;999.90;;;;;;;-1.17;100.00;96911.53;5015994;28;20112;-64
2020/12/12 00:27:36;;;;;;;1999.90;999.90;;;;;;;-0.45;100.00;96910.81;5019390;28;20049;-65
2020/12/12 00:30:06;;;;;;;1999.90;999.90;;;;;;;-1.26;99.81;96910.53;5023898;28;20060;-65
2020/12/12 00:32:32;;;;;;;1999.90;999.90;;;;;;;-1.13;99.47;96915.31;5020939;28;20096;-65
2020/12/12 00:34:58;;;;;;;1999.90;999.90;;;;;;;-1.02;100.00;96923.34;5023565;28;20127;-65
2020/12/12 00:37:24;;;;;;;1999.90;999.90;;;;;;;-0.20;98.87;96908.91;5023729;28;20198;-66
2020/12/12 00:39:50;;;;;;;1999.90;999.90;;;;;;;-1.14;98.79;96921.81;5023464;28;20052;-65
2020/12/12 00:42:17;;;;;;;1999.90;999.90;;;;;;;-1.14;100.00;96924.53;5024032;28;20089;-65
2020/12/12 00:44:43;;;;;;;1999.90;999.90;;;;;;;-1.32;100.00;96928.75;5022748;28;20440;-66
2020/12/12 00:47:10;;;;;;;1999.90;999.90;;;;;;;-0.32;100.00;96922.88;5022849;28;20061;-64
2020/12/12 00:49:36;;;;;;;1999.90;999.90;;;;;;;0.24;95.51;96918.66;5022381;28;20692;-64
2020/12/12 00:52:05;;;;;;;1999.90;999.90;;;;;;;0.02;94.73;96915.69;5023598;28;20058;-64
2020/12/12 00:54:33;;;;;;;1999.90;999.90;;;;;;;-0.29;98.24;96929.66;5022924;28;20057;-64
2020/12/12 00:56:59;;;;;;;1999.90;999.90;;;;;;;-0.41;97.21;96917.28;5024337;28;20211;-64
2020/12/12 00:59:25;;;;;;;1999.90;999.90;;;;;;;-0.12;95.50;96918.31;5026118;28;20111;-64
2020/12/12 01:01:51;;;;;;;1999.90;999.90;;;;;;;-0.84;97.20;96919.13;5024009;28;20049;-64
2020/12/12 01:04:17;;;;;;;1999.90;999.90;;;;;;;-0.32;97.93;96922.09;5025463;28;20068;-64
2020/12/12 01:06:47;;;;;;;1999.90;999.90;;;;;;;-0.54;97.70;96921.50;5024199;28;20057;-64
2020/12/12 01:09:13;;;;;;;1999.90;999.90;;;;;;;-0.04;96.61;96915.75;5023856;28;20049;-64
2020/12/12 01:11:40;;;;;;;1999.90;999.90;;;;;;;-0.22;96.35;96913.81;5023076;28;20378;-64
2020/12/12 01:14:06;;;;;;;1999.90;999.90;;;;;;;-0.31;96.54;96910.09;5023288;28;20046;-64
2020/12/12 01:16:32;;;;;;;1999.90;999.90;;;;;;;0.35;95.39;96903.00;5024869;28;20056;-64
2020/12/12 01:18:59;;;;;;;1999.90;999.90;;;;;;;0.14;93.81;96899.75;5024464;28;20111;-64
2020/12/12 01:21:25;;;;;;;1999.90;999.90;;;;;;;0.03;94.79;96903.72;5025602;28;20049;-64
2020/12/12 01:23:51;;;;;;;1999.90;999.90;;;;;;;0.21;95.31;96894.75;5025395;28;20049;-64
2020/12/12 01:26:18;;;;;;;1999.90;999.90;;;;;;;0.15;94.28;96895.94;5024999;28;20061;-64
2020/12/12 01:28:45;;;;;;;1999.90;999.90;;;;;;;0.22;94.06;96890.94;5024937;28;20053;-64
2020/12/12 01:31:12;;;;;;;1999.90;999.90;;;;;;;0.01;95.35;96895.03;5025518;28;20045;-64
2020/12/12 01:33:40;;;;;;;1999.90;999.90;;;;;;;-0.39;96.44;96887.13;5025390;28;20201;-64
2020/12/12 01:36:07;;;;;;;1999.90;999.90;;;;;;;-0.09;97.04;96890.53;5024965;28;20053;-64
2020/12/12 01:38:34;;;;;;;1999.90;999.90;;;;;;;-0.49;97.38;96884.50;5024752;28;20049;-64
2020/12/12 01:41:01;;;;;;;1999.90;999.90;;;;;;;-0.03;96.81;96878.50;5025130;28;20448;-64
2020/12/12 01:43:28;;;;;;;1999.90;999.90;;;;;;;-0.62;97.57;96872.47;5024573;28;20402;-64
2020/12/12 01:45:54;;;;;;;1999.90;999.90;;;;;;;-0.33;98.55;96874.28;5024923;28;20061;-64
2020/12/12 01:48:21;;;;;;;1999.90;999.90;;;;;;;-0.15;97.75;96869.97;5025490;28;20052;-64
2020/12/12 01:50:47;;;;;;;1999.90;999.90;;;;;;;0.51;95.77;96876.38;5020661;28;20046;-64
2020/12/12 01:53:14;;;;;;;1999.90;999.90;;;;;;;0.95;92.93;96877.00;5015009;28;20057;-64
2020/12/12 01:55:47;;;;;;;1999.90;999.90;;;;;;;0.97;91.51;96872.88;5021382;28;20053;-64
2020/12/12 01:58:17;;;;;;;1999.90;999.90;;;;;;;0.54;93.43;96864.91;5022275;28;20092;-64
2020/12/12 02:00:43;;;;;;;1999.90;999.90;;;;;;;0.35;93.59;96865.72;5017580;28;20045;-64
2020/12/12 02:03:13;;;;;;;1999.90;999.90;;;;;;;0.39;93.58;96862.41;5024885;28;20528;-64
2020/12/12 02:05:44;;;;;;;1999.90;999.90;;;;;;;0.01;95.91;96857.00;5024998;28;20053;-64
2020/12/12 02:08:14;;;;;;;;;;;;;;;0.23;95.68;96859.94;5019917;28;20065;-64
2020/12/12 02:10:43;;;;;;;1999.90;999.90;;;;;;;0.60;95.05;96847.38;5024761;28;19925;-64
2020/12/12 02:13:10;;;;;;;1999.90;999.90;;;;;;;0.35;94.68;96843.16;5024537;28;20068;-64
2020/12/12 02:15:37;;;;;;;1999.90;999.90;;;;;;;0.10;95.43;96838.91;5019589;28;20049;-64
2020/12/12 02:18:05;;;;;;;1999.90;999.90;;;;;;;0.50;94.62;96845.63;5015794;28;20054;-64
2020/12/12 02:20:32;;;;;;;1999.90;999.90;;;;;;;0.55;94.15;96838.50;5022302;28;20045;-64
2020/12/12 02:22:58;;;;;;;1999.90;999.90;;;;;;;0.03;95.95;96844.75;5022930;28;20067;-64
2020/12/12 02:25:24;;;;;;;1999.90;999.90;;;;;;;0.33;94.47;96848.91;5024082;28;20054;-64
2020/12/12 02:27:53;;;;;;;1999.90;999.90;;;;;;;0.11;96.25;96840.53;5014379;28;20498;-64
2020/12/12 02:30:19;;;;;;;1999.90;999.90;;;;;;;0.44;95.10;96835.16;5011819;28;20417;-64
2020/12/12 02:32:45;;;;;;;1999.90;999.90;;;;;;;0.53;95.36;96836.06;5024379;28;20057;-65
2020/12/12 02:35:12;;;;;;;1999.90;999.90;;;;;;;0.57;93.56;96834.38;5024161;28;20056;-64
2020/12/12 02:37:38;;;;;;;1999.90;999.90;;;;;;;0.34;95.34;96831.50;5023999;28;20456;-64
2020/12/12 02:40:05;;;;;;;1999.90;999.90;;;;;;;1.00;93.29;96827.94;5024574;28;20505;-65
2020/12/12 02:42:31;;;;;;;1999.90;999.90;;;;;;;0.60;93.47;96833.78;5024242;28;20053;-64
2020/12/12 02:44:58;;;;;;;1999.90;999.90;;;;;;;0.45;94.53;96834.03;5024441;28;20123;-64
2020/12/12 02:47:25;;;;;;;1999.90;999.90;;;;;;;0.78;93.88;96823.94;5010655;28;20061;-64
2020/12/12 02:50:12;;;;;;;1999.90;999.90;;;;;;;0.76;92.29;96828.06;5027290;28;20496;-64
2020/12/12 02:52:40;;;;;;;1999.90;999.90;;;;;;;-0.08;96.64;96832.38;5019507;28;20054;-64
2020/12/12 02:55:08;;;;;;;1999.90;999.90;;;;;;;0.24;97.03;96828.94;5019677;28;20049;-64
2020/12/12 02:57:35;;;;;;;1999.90;999.90;;;;;;;0.26;96.81;96815.84;5028480;28;20061;-64
2020/12/12 03:00:15;;;;;;;1999.90;999.90;;;;;;;-0.27;98.03;96824.22;5028358;28;20087;-64
2020/12/12 03:02:41;;;;;;;1999.90;999.90;;;;;;;-0.09;98.43;96823.44;5028275;28;20053;-64
2020/12/12 03:05:08;;;;;;;1999.90;999.90;;;;;;;0.48;96.07;96806.25;5025743;28;20049;-64
2020/12/12 03:07:35;;;;;;;1999.90;999.90;;;;;;;0.45;95.30;96818.53;5013086;28;20058;-65
2020/12/12 03:10:05;;;;;;;1999.90;999.90;;;;;;;0.53;95.71;96814.31;5011848;28;20493;-64
2020/12/12 03:12:32;;;;;;;1999.90;999.90;;;;;;;1.19;93.05;96804.16;5019940;28;20057;-64
2020/12/12 03:14:59;;;;;;;1999.90;999.90;;;;;;;0.47;94.79;96810.06;5027747;28;20049;-65
2020/12/12 03:17:25;;;;;;;1999.90;999.90;;;;;;;0.47;94.60;96818.22;5027734;28;20053;-64
2020/12/12 03:19:51;;;;;;;1999.90;999.90;;;;;;;0.79;94.26;96811.97;5017519;28;20494;-64
2020/12/12 03:22:18;;;;;;;1999.90;999.90;;;;;;;0.99;92.91;96815.41;5018130;28;20515;-64
2020/12/12 03:24:44;;;;;;;1999.90;999.90;;;;;;;0.60;93.45;96813.94;5027892;28;20168;-65
2020/12/12 03:27:11;;;;;;;1999.90;999.90;;;;;;;0.05;96.91;96814.53;5027904;28;20064;-64
2020/12/12 03:29:37;;;;;;;1999.90;999.90;;;;;;;0.83;94.19;96817.59;5027612;28;20045;-64
2020/12/12 03:32:09;;;;;;;1999.90;999.90;;;;;;;1.37;91.56;96820.66;5027910;28;20103;-65
2020/12/12 03:34:36;;;;;;;1999.90;999.90;;;;;;;1.34;90.74;96819.38;5027218;28;20566;-64
2020/12/12 03:37:04;;;;;;;1999.90;999.90;;;;;;;1.47;89.33;96816.94;5027821;28;20085;-65
2020/12/12 03:39:30;;;;;;;1999.90;999.90;;;;;;;0.61;92.36;96821.81;5027859;28;20042;-64
2020/12/12 03:41:56;;;;;;;1999.90;999.90;;;;;;;0.88;94.12;96822.97;5027345;28;20119;-64
2020/12/12 03:44:23;;;;;;;1999.90;999.90;;;;;;;1.64;90.27;96822.59;5027409;28;20053;-65
2020/12/12 03:46:50;;;;;;;1999.90;999.90;;;;;;;1.81;88.75;96824.66;5027124;28;20045;-65
2020/12/12 03:49:17;;;;;;;1999.90;999.90;;;;;;;2.01;87.81;96823.44;5025974;28;20091;-65
2020/12/12 03:51:43;;;;;;;1999.90;999.90;;;;;;;2.27;86.14;96825.56;5026964;28;20566;-65
2020/12/12 03:54:10;;;;;;;1999.90;999.90;;;;;;;2.18;86.37;96825.47;5027751;28;20107;-65
2020/12/12 03:56:36;;;;;;;1999.90;999.90;;;;;;;2.23;86.25;96821.81;5027220;28;20045;-65
2020/12/12 03:59:02;;;;;;;1999.90;999.90;;;;;;;1.94;86.63;96829.28;5026525;28;20750;-65
2020/12/12 04:01:28;;;;;;;1999.90;999.90;;;;;;;2.32;85.75;96827.34;5022265;28;20122;-65
2020/12/12 04:03:54;;;;;;;1999.90;999.90;;;;;;;2.30;85.20;96822.22;5027162;28;20123;-65
2020/12/12 04:06:21;;;;;;;1999.90;999.90;;;;;;;2.62;84.47;96803.97;5027156;28;20049;-64
2020/12/12 04:08:50;;;;;;;1999.90;999.90;;;;;;;2.68;84.19;96808.22;5026841;28;20082;-65
2020/12/12 04:11:16;;;;;;;1999.90;999.90;;;;;;;2.13;85.75;96816.59;5026934;28;20680;-65
2020/12/12 04:13:42;;;;;;;1999.90;999.90;;;;;;;2.34;85.40;96815.03;5026879;28;20382;-65
2020/12/12 04:16:09;;;;;;;1999.90;999.90;;;;;;;2.05;85.58;96812.69;5026411;28;20501;-65
2020/12/12 04:18:35;;;;;;;1999.90;999.90;;;;;;;1.89;86.00;96825.84;5026570;28;20077;-65
2020/12/12 04:21:01;;;;;;;1999.90;999.90;;;;;;;2.23;85.58;96814.47;5026934;28;20041;-65
2020/12/12 04:23:28;;;;;;;1999.90;999.90;;;;;;;1.94;86.92;96823.03;5026748;28;20046;-65
2020/12/12 04:25:54;;;;;;;1999.90;999.90;;;;;;;2.37;85.38;96814.41;5026795;28;20053;-65
2020/12/12 04:28:20;;;;;;;1999.90;999.90;;;;;;;2.31;84.68;96804.75;5026108;28;20045;-65
2020/12/12 04:30:46;;;;;;;1999.90;999.90;;;;;;;1.99;85.22;96809.28;5026293;28;20057;-65
2020/12/12 04:33:12;;;;;;;1999.90;999.90;;;;;;;1.38;87.48;96817.63;5026804;28;20050;-65
2020/12/12 04:35:38;;;;;;;1999.90;999.90;;;;;;;1.80;87.26;96817.59;5026370;28;20045;-65
2020/12/12 04:38:05;;;;;;;1999.90;999.90;;;;;;;2.24;85.58;96807.09;5026419;28;20064;-65
2020/12/12 04:40:31;;;;;;;1999.90;999.90;;;;;;;2.26;85.24;96815.75;5026558;28;20049;-65
2020/12/12 04:42:59;;;;;;;1999.90;999.90;;;;;;;2.58;83.94;96820.16;5026334;28;20053;-65
2020/12/12 04:45:26;;;;;;;1999.90;999.90;;;;;;;2.71;83.49;96810.31;5026285;28;20053;-65
2020/12/12 04:47:53;;;;;;;1999.90;999.90;;;;;;;2.54;84.01;96819.16;5025716;28;20049;-66
2020/12/12 04:50:28;;;;;;;1999.90;999.90;;;;;;;2.76;83.15;96820.28;5026457;28;20120;-65
2020/12/12 04:53:14;;;;;;;1999.90;999.90;;;;;;;2.73;83.33;96815.44;5015999;28;20432;-65
2020/12/12 04:55:51;;;;;;;1999.90;999.90;;;;;;;2.73;83.19;96813.53;5025791;28;20442;-65
2020/12/12 04:58:20;;;;;;;1999.90;999.90;;;;;;;2.86;82.59;96813.75;5025877;28;20057;-65
2020/12/12 05:00:48;;;;;;;1999.90;999.90;;;;;;;2.79;83.39;96820.47;5025997;28;20053;-65
2020/12/12 05:03:19;;;;;;;1999.90;999.90;;;;;;;2.95;82.40;96822.81;5026265;28;20053;-65
2020/12/12 05:05:45;;;;;;;1999.90;999.90;;;;;;;3.04;82.23;96831.84;5025949;28;20065;-65
2020/12/12 05:08:12;;;;;;;1999.90;999.90;;;;;;;2.91;82.17;96822.63;5025795;28;20053;-65
2020/12/12 05:10:46;;;;;;;1999.90;999.90;;;;;;;2.59;83.14;96820.97;5025396;28;20049;-65
2020/12/12 05:13:23;;;;;;;1999.90;999.90;;;;;;;2.79;83.01;96823.19;5016931;28;20049;-65
2020/12/12 05:15:52;;;;;;;1999.90;999.90;;;;;;;2.82;82.49;96827.22;5025200;28;20416;-65
2020/12/12 05:18:19;;;;;;;1999.90;999.90;;;;;;;2.80;83.08;96838.47;5015702;28;20045;-66
2020/12/12 05:20:46;;;;;;;1999.90;999.90;;;;;;;2.41;83.54;96837.22;5025789;28;20501;-64
2020/12/12 05:23:25;;;;;;;1999.90;999.90;;;;;;;2.49;83.74;96843.03;5025718;28;20049;-63
2020/12/12 05:25:53;;;;;;;1999.90;999.90;;;;;;;2.59;83.32;96832.72;5025360;28;20239;-65
2020/12/12 05:28:21;;;;;;;1999.90;999.90;;;;;;;2.65;83.08;96833.41;5025580;28;20052;-64
2020/12/12 05:30:49;;;;;;;1999.90;999.90;;;;;;;2.54;83.19;96832.03;5025436;28;20436;-65
2020/12/12 05:33:18;;;;;;;1999.90;999.90;;;;;;;2.17;84.64;96832.03;5018933;28;20037;-64
2020/12/12 05:35:45;;;;;;;1999.90;999.90;;;;;;;1.78;86.39;96836.19;5020036;28;20049;-64
2020/12/12 05:38:12;;;;;;;1999.90;999.90;;;;;;;1.76;86.46;96832.97;5016457;28;20069;-64
2020/12/12 05:40:41;;;;;;;1999.90;999.90;;;;;;;1.65;87.12;96832.34;5017674;28;20049;-64
2020/12/12 05:43:10;;;;;;;1999.90;999.90;;;;;;;1.35;88.72;96831.88;5025192;28;20088;-64
2020/12/12 05:45:38;;;;;;;1999.90;999.90;;;;;;;1.86;87.11;96826.47;5025231;28;20053;-64
2020/12/12 05:48:05;;;;;;;1999.90;999.90;;;;;;;1.33;88.66;96822.41;5021438;28;20053;-64
2020/12/12 05:50:31;;;;;;;1999.90;999.90;;;;;;;0.94;89.69;96819.06;5024845;28;20075;-64
2020/12/12 05:52:57;;;;;;;1999.90;999.90;;;;;;;1.11;89.91;96826.63;5025030;28;20301;-64
2020/12/12 05:55:28;;;;;;;1999.90;999.90;;;;;;;1.60;88.21;96829.75;5025382;28;20111;-64
2020/12/12 05:57:55;;;;;;;1999.90;999.90;;;;;;;1.64;86.91;96832.66;5057058;28;20119;-64
2020/12/12 06:00:23;;;;;;;1999.90;999.90;;;;;;;1.56;87.59;96836.91;5025245;28;20057;-64
2020/12/12 06:02:54;;;;;;;1999.90;999.90;;;;;;;1.27;88.06;96832.59;5024557;28;20048;-64
2020/12/12 06:05:28;;;;;;;1999.90;999.90;;;;;;;1.53;88.56;96835.63;5025305;28;20053;-64
2020/12/12 06:08:03;;;;;;;1999.90;999.90;;;;;;;2.03;85.85;96837.53;5024092;28;20464;-66
2020/12/12 06:10:31;;;;;;;1999.90;999.90;;;;;;;1.59;86.26;96830.84;5024949;28;20099;-66
2020/12/12 06:13:03;;;;;;;1999.90;999.90;;;;;;;1.36;88.51;96836.22;5024697;28;20051;-63
2020/12/12 06:15:35;;;;;;;1999.90;999.90;;;;;;;1.88;86.55;96840.63;5024899;28;20054;-63
2020/12/12 06:18:09;;;;;;;1999.90;999.90;;;;;;;2.14;85.24;96848.22;5024347;28;20061;-64
2020/12/12 06:20:38;;;;;;;1999.90;999.90;;;;;;;2.25;84.57;96842.22;5024321;28;20052;-65
2020/12/12 06:23:08;;;;;;;1999.90;999.90;;;;;;;2.52;83.60;96837.78;5021503;28;20083;-65
2020/12/12 06:25:35;;;;;;;1999.90;999.90;;;;;;;2.22;84.07;96840.13;5006021;28;20405;-65
2020/12/12 06:28:03;;;;;;;1999.90;999.90;;;;;;;2.19;84.67;96835.28;5018967;28;20111;-65
2020/12/12 06:30:31;;;;;;;1999.90;999.90;;;;;;;2.48;83.84;96836.78;5023149;28;20147;-65
2020/12/12 06:33:01;;;;;;;1999.90;999.90;;;;;;;2.62;83.13;96847.63;5024169;28;20046;-65
2020/12/12 06:35:32;;;;;;;1999.90;999.90;;;;;;;2.87;82.68;96840.72;5024185;28;20534;-65
2020/12/12 06:38:18;;;;;;;1999.90;999.90;;;;;;;2.94;81.72;96843.81;5024328;28;20049;-63
2020/12/12 06:40:45;;;;;;;1999.90;999.90;;;;;;;2.64;82.67;96846.22;5023108;28;20448;-64
2020/12/12 06:43:28;;;;;;;1999.90;999.90;;;;;;;2.77;82.29;96844.53;5023815;28;20574;-65
2020/12/12 06:45:54;;;;;;;1999.90;999.90;;;;;;;2.37;82.98;96851.81;5022295;28;20115;-64
2020/12/12 06:48:28;;;;;;;1999.90;999.90;;;;;;;2.42;83.46;96851.66;5024261;28;20457;-64
2020/12/12 06:50:56;;;;;;;1999.90;999.90;;;;;;;2.69;83.03;96850.75;5023872;28;20501;-64
2020/12/12 06:53:24;;;;;;;1999.90;999.90;;;;;;;2.74;82.43;96850.63;5024140;28;20045;-63
2020/12/12 06:56:16;;;;;;;1999.90;999.90;;;;;;;2.71;82.60;96851.25;5024215;28;20531;-64
2020/12/12 06:58:43;;;;;;;1999.90;999.90;;;;;;;2.49;83.75;96853.97;5024378;28;20057;-64
2020/12/12 07:01:32;;;;;;;1999.90;999.90;;;;;;;2.20;84.19;96857.91;5024382;28;20041;-63
2020/12/12 07:04:01;;;;;;;1999.90;999.90;;;;;;;2.05;85.28;96862.56;5018429;28;20481;-64
2020/12/12 07:06:29;;;;;;;1999.90;999.90;;;;;;;1.80;86.01;96860.41;5024594;28;20045;-63
2020/12/12 07:09:17;;;;;;;1999.90;999.90;;;;;;;1.72;86.71;96865.44;5024209;28;20345;-66
2020/12/12 07:11:43;;;;;;;1999.90;999.90;;;;;;;2.11;85.51;96863.28;5003552;28;20463;-66
2020/12/12 07:14:10;;;;;;;1999.90;999.90;;;;;;;1.97;86.51;96876.94;5024040;28;20096;-66
2020/12/12 07:16:36;;;;;;;1999.90;999.90;;;;;;;1.82;86.96;96863.66;5023988;28;20567;-65
2020/12/12 07:19:03;;;;;;;1999.90;999.90;;;;;;;2.03;86.59;96859.34;5023927;28;20585;-65
2020/12/12 07:21:29;;;;;;;1999.90;999.90;;;;;;;1.57;88.07;96868.50;5024158;28;20041;-66
2020/12/12 07:23:55;;;;;;;1999.90;999.90;;;;;;;1.61;88.70;96864.06;5044980;28;20532;-65
2020/12/12 07:26:21;;;;;;;1999.90;999.90;;;;;;;1.95;86.83;96865.56;5021723;28;20053;-65
2020/12/12 07:28:47;;;;;;;1999.90;999.90;;;;;;;2.16;86.69;96867.81;5023510;28;20053;-65
2020/12/12 07:31:13;;;;;;;1999.90;999.90;;;;;;;2.13;86.92;96868.41;5024226;28;20042;-65
2020/12/12 07:33:47;;;;;;;1999.90;999.90;;;;;;;2.15;86.67;96875.19;5024220;28;20045;-66
2020/12/12 07:36:13;;;;;;;1999.90;999.90;;;;;;;2.03;86.28;96875.72;5027105;28;20049;-66
2020/12/12 07:38:40;;;;;;;1999.90;999.90;;;;;;;1.91;87.87;96878.16;5027490;28;20045;-65
2020/12/12 07:41:11;;;;;;;1999.90;999.90;;;;;;;2.11;86.81;96882.38;5027479;28;20107;-66
2020/12/12 07:43:55;;;;;;;1999.90;999.90;;;;;;;1.61;87.70;96879.59;5038831;28;20053;-64
2020/12/12 07:46:38;;;;;;;1999.90;999.90;;;;;;;1.50;89.44;96895.34;5027181;28;20276;-64
2020/12/12 07:49:07;;;;;;;1999.90;999.90;;;;;;;1.51;90.10;96886.06;5027714;28;20132;-64
2020/12/12 07:51:34;;;;;;;1999.90;999.90;;;;;;;1.31;91.25;96888.06;5027823;28;20136;-64
2020/12/12 07:54:11;;;;;;;1999.90;999.90;;;;;;;1.67;89.33;96889.31;5027133;28;20050;-64
2020/12/12 07:56:48;;;;;;;1999.90;999.90;;;;;;;1.97;88.19;96881.59;5027190;28;20432;-64
2020/12/12 07:59:19;;;;;;;1999.90;999.90;;;;;;;2.03;87.92;96892.06;5027168;28;20045;-64
2020/12/12 08:01:49;;;;;;;1999.90;999.90;;;;;;;1.67;88.68;96897.47;5026943;28;20559;-64
2020/12/12 08:04:23;;;;;;;1999.90;999.90;;;;;;;1.29;91.24;96890.28;5027050;28;20045;-64
2020/12/12 08:06:51;;;;;;;1999.90;999.90;;;;;;;1.83;89.21;96892.50;5027501;28;20070;-64
2020/12/12 08:09:19;;;;;;;1999.90;999.90;;;;;;;2.10;88.07;96903.38;5027249;28;20057;-64
2020/12/12 08:11:54;;;;;;;1999.90;999.90;;;;;;;1.80;88.81;96899.34;5026727;28;20050;-65
2020/12/12 08:14:21;;;;;;;1999.90;999.90;;;;;;;1.75;89.47;96903.00;5037429;28;20111;-65
2020/12/12 08:16:53;;;;;;;1999.90;999.90;;;;;;;1.77;89.76;96910.88;5014502;28;20531;-65
2020/12/12 08:19:19;;;;;;;1999.90;999.90;;;;;;;1.35;89.90;96910.84;5021936;28;20057;-65
2020/12/12 08:21:50;;;;;;;1999.90;999.90;;;;;;;1.47;91.56;96910.38;5027238;28;20462;-65
2020/12/12 08:24:16;;;;;;;1999.90;999.90;;;;;;;1.51;91.17;96910.59;5020413;28;20546;-65
2020/12/12 08:26:42;;;;;;;1999.90;999.90;;;;;;;1.45;91.14;96904.41;5026954;28;20049;-65
2020/12/12 08:29:09;;;;;;;1999.90;999.90;;;;;;;1.39;91.58;96900.97;5027156;28;20676;-65
2020/12/12 08:31:37;;;;;;;1999.90;999.90;;;;;;;1.74;90.40;96901.41;5026756;28;20041;-65
2020/12/12 08:34:04;;;;;;;1999.90;999.90;;;;;;;1.86;90.17;96902.78;5027043;28;20111;-65
2020/12/12 08:36:31;;;;;;;1999.90;999.90;;;;;;;0.95;92.39;96905.03;5026797;28;21478;-65
2020/12/12 08:39:00;;;;;;;1999.90;999.90;;;;;;;1.16;93.46;96901.94;5026217;28;20045;-65
2020/12/12 08:41:35;;;;;;;1999.90;999.90;;;;;;;0.68;95.63;96908.47;5026334;28;20072;-65
2020/12/12 08:44:02;;;;;;;1999.90;999.90;;;;;;;0.65;96.03;96915.31;5024569;28;20395;-66
2020/12/12 08:46:29;;;;;;;1999.90;999.90;;;;;;;1.31;94.25;96926.19;5049904;28;20065;-65
2020/12/12 08:48:55;;;;;;;1999.90;999.90;;;;;;;1.25;93.62;96921.97;5025557;28;20053;-66
2020/12/12 08:51:28;;;;;;;1999.90;999.90;;;;;;;1.32;93.24;96925.06;5026497;28;20099;-66
2020/12/12 08:53:55;;;;;;;1999.90;999.90;;;;;;;1.75;91.46;96926.72;5026583;28;20050;-65
2020/12/12 08:56:21;;;;;;;1999.90;999.90;;;;;;;1.99;90.80;96926.50;5026409;28;20049;-65
2020/12/12 08:59:00;;;;;;;1999.90;999.90;;;;;;;1.67;91.93;96922.00;5026406;28;20417;-65
2020/12/12 09:01:42;;;;;;;1999.90;999.90;;;;;;;1.58;92.31;96919.16;5026165;28;20046;-65
2020/12/12 09:04:10;;;;;;;1999.90;999.90;;;;;;;1.80;91.43;96923.88;5026162;28;20472;-65
2020/12/12 09:06:48;;;;;;;1999.90;999.90;;;;;;;1.30;92.74;96919.13;5013764;28;20136;-65
2020/12/12 09:09:21;;;;;;;1999.90;999.90;;;;;;;1.47;93.26;96923.97;5026236;28;20429;-65
2020/12/12 09:11:57;;;;;;;1999.90;999.90;;;;;;;1.78;92.79;96917.16;5021543;28;20122;-65
2020/12/12 09:14:24;;;;;;;1999.90;999.90;;;;;;;1.45;93.37;96919.97;5020123;28;20545;-65
2020/12/12 09:16:55;;;;;;;1999.90;999.90;;;;;;;1.94;92.33;96919.25;5013087;28;20484;-64
2020/12/12 09:19:22;;;;;;;1999.90;999.90;;;;;;;2.80;89.39;96909.44;5012573;28;20108;-64
2020/12/12 09:21:49;;;;;;;1999.90;999.90;;;;;;;2.89;87.98;96911.41;5018796;28;20045;-65
2020/12/12 09:24:16;;;;;;;1999.90;999.90;;;;;;;2.54;88.59;96916.63;5013787;28;20058;-64
2020/12/12 09:26:47;;;;;;;1999.90;999.90;;;;;;;2.30;89.73;96917.69;5021696;28;20420;-64
2020/12/12 09:29:13;;;;;;;1999.90;999.90;;;;;;;2.80;88.41;96911.38;5015219;28;20057;-66
2020/12/12 09:31:39;;;;;;;1999.90;999.90;;;;;;;2.80;88.70;96909.44;5011696;28;20501;-65
2020/12/12 09:34:06;;;;;;;1999.90;999.90;;;;;;;3.00;87.55;96913.56;5011176;28;20045;-65
2020/12/12 09:36:32;;;;;;;1999.90;999.90;;;;;;;2.78;88.42;96919.88;5022006;28;20119;-65
2020/12/12 09:38:59;;;;;;;1999.90;999.90;;;;;;;2.63;89.34;96906.56;5020476;28;20049;-66
2020/12/12 09:41:25;;;;;;;1999.90;999.90;;;;;;;2.85;88.48;96913.16;5012912;28;20079;-65
2020/12/12 09:43:51;;;;;;;1999.90;999.90;;;;;;;2.91;88.36;96909.19;5022042;28;20053;-65
2020/12/12 09:46:18;;;;;;;1999.90;999.90;;;;;;;3.12;87.12;96909.47;5022368;28;20076;-65
2020/12/12 09:48:47;;;;;;;1999.90;999.90;;;;;;;3.04;87.24;96910.22;5020264;28;20057;-65
2020/12/12 09:51:14;;;;;;;1999.90;999.90;;;;;;;2.89;87.63;96908.69;5022187;28;20052;-65
2020/12/12 09:53:42;;;;;;;1999.90;999.90;;;;;;;2.86;87.56;96912.03;5019243;28;20053;-65
2020/12/12 09:56:11;;;;;;;1999.90;999.90;;;;;;;3.14;87.04;96907.22;5020529;28;20568;-65
2020/12/12 09:58:37;;;;;;;1999.90;999.90;;;;;;;2.56;87.38;96914.38;5020236;28;20072;-65
2020/12/12 10:01:08;;;;;;;1999.90;999.90;;;;;;;3.04;87.75;96912.94;5019264;28;20057;-66
2020/12/12 10:03:34;;;;;;;1999.90;999.90;;;;;;;3.12;86.95;96913.00;5019851;28;20484;-66
2020/12/12 10:06:01;;;;;;;1999.90;999.90;;;;;;;3.68;85.92;96908.00;5014038;28;20063;-65
2020/12/12 10:08:30;;;;;;;1999.90;999.90;;;;;;;3.52;85.91;96907.59;5014637;28;20138;-65
2020/12/12 10:10:56;;;;;;;1999.90;999.90;;;;;;;2.85;87.54;96907.72;5020320;28;20095;-66
2020/12/12 10:13:22;;;;;;;1999.90;999.90;;;;;;;3.02;87.53;96901.53;5014482;28;20123;-65
2020/12/12 10:15:48;;;;;;;1999.90;999.90;;;;;;;2.22;90.80;96902.03;5014195;28;20053;-66
2020/12/12 10:18:15;;;;;;;1999.90;999.90;;;;;;;2.96;89.35;96900.84;5007995;28;20054;-65
2020/12/12 10:20:45;;;;;;;1999.90;999.90;;;;;;;2.78;88.81;96916.31;5021955;28;20055;-65
2020/12/12 10:23:11;;;;;;;1999.90;999.90;;;;;;;2.97;88.93;96910.66;5021234;28;20532;-65
2020/12/12 10:25:37;;;;;;;1999.90;999.90;;;;;;;2.50;88.75;96913.72;5017350;28;20056;-65
2020/12/12 10:28:08;;;;;;;1999.90;999.90;;;;;;;2.87;89.04;96913.66;5013919;28;20314;-65
2020/12/12 10:30:34;;;;;;;1999.90;999.90;;;;;;;3.16;86.93;96911.28;5006452;28;20052;-66
2020/12/12 10:33:01;;;;;;;1999.90;999.90;;;;;;;3.25;86.03;96908.59;5011319;28;20123;-66
2020/12/12 10:35:29;;;;;;;1999.90;999.90;;;;;;;2.52;89.40;96910.66;5022992;28;20049;-65
2020/12/12 10:37:56;;;;;;;1999.90;999.90;;;;;;;2.30;91.08;96909.50;5015935;28;20068;-65
2020/12/12 10:40:35;;;;;;;1999.90;999.90;;;;;;;2.56;90.41;96908.91;5020015;28;20049;-65
2020/12/12 10:43:04;;;;;;;1999.90;999.90;;;;;;;3.42;88.08;96901.59;5011831;28;20120;-65
2020/12/12 10:45:31;;;;;;;1999.90;999.90;;;;;;;3.11;87.17;96908.69;5007924;28;20054;-65
2020/12/12 10:47:57;;;;;;;1999.90;999.90;;;;;;;2.67;89.54;96907.56;5019814;28;20050;-65
2020/12/12 10:50:23;;;;;;;1999.90;999.90;;;;;;;2.83;88.84;96910.75;5019444;28;20129;-66
2020/12/12 10:52:51;;;;;;;1999.90;999.90;;;;;;;3.64;86.76;96915.22;5019472;28;20058;-66
2020/12/12 10:55:19;;;;;;;1999.90;999.90;;;;;;;3.96;84.63;96912.41;5020175;28;20100;-65
2020/12/12 10:57:46;;;;;;;1999.90;999.90;;;;;;;3.55;85.06;96919.03;5018616;28;20060;-65
2020/12/12 11:00:12;;;;;;;1999.90;999.90;;;;;;;3.56;85.35;96912.44;5021043;28;20418;-64
2020/12/12 11:02:39;;;;;;;1999.90;999.90;;;;;;;4.04;84.17;96919.84;5021080;28;20049;-65
2020/12/12 11:05:06;;;;;;;1999.90;999.90;;;;;;;3.68;84.10;96920.88;5019694;28;20049;-66